createdAt,value
2018-05-02T00:01:04.182Z,74.03
2018-05-02T00:03:30.930Z,74.46
2018-05-02T00:06:01.413Z,73.72
2018-05-02T00:08:27.912Z,73.98
2018-05-02T00:10:54.619Z,74.40
2018-05-02T00:13:21.394Z,73.46
2018-05-02T00:15:48.149Z,74.71
2018-05-02T00:18:14.759Z,73.71
2018-05-02T00:20:41.452Z,72.79
2018-05-02T00:23:08.066Z,72.92
2018-05-02T00:25:34.698Z,73.59
2018-05-02T00:28:08.117Z,74.83
2018-05-02T00:30:34.659Z,73.42
2018-05-02T00:33:02.030Z,74.53
2018-05-02T00:35:28.735Z,73.40
2018-05-02T00:38:00.581Z,73.63
2018-05-02T00:40:27.305Z,73.98
2018-05-02T00:42:54.014Z,74.16
2018-05-02T00:45:20.669Z,74.80
2018-05-02T00:47:50.543Z,75.17
2018-05-02T00:50:17.026Z,74.72
2018-05-02T00:52:43.681Z,74.42
2018-05-02T00:55:10.213Z,75.02
2018-05-02T00:57:37.054Z,75.00
2018-05-02T01:00:03.657Z,75.10
2018-05-02T01:02:30.317Z,75.50
2018-05-02T01:04:57.040Z,74.80
2018-05-02T01:07:27.319Z,74.07
2018-05-02T01:09:54.945Z,74.15
2018-05-02T01:12:21.426Z,74.12
2018-05-02T01:14:48.037Z,75.23
2018-05-02T01:17:14.920Z,75.73
2018-05-02T01:19:41.733Z,74.68
2018-05-02T01:22:08.292Z,74.68
2018-05-02T01:24:35.131Z,74.04
2018-05-02T01:27:02.550Z,75.16
2018-05-02T01:29:32.949Z,74.89
2018-05-02T01:31:59.574Z,74.68
2018-05-02T01:34:26.177Z,74.60
2018-05-02T01:36:53.350Z,74.25
2018-05-02T01:39:19.964Z,74.31
2018-05-02T01:41:46.618Z,74.54
2018-05-02T01:44:13.154Z,74.77
2018-05-02T01:46:43.963Z,75.53
2018-05-02T01:49:22.394Z,75.25
2018-05-02T01:51:49.161Z,75.25
2018-05-02T01:54:15.893Z,75.75
2018-05-02T01:56:48.318Z,75.92
2018-05-02T01:59:14.882Z,75.61
2018-05-02T02:01:41.443Z,74.90
2018-05-02T02:04:08.010Z,74.73
2018-05-02T02:06:34.814Z,75.26
2018-05-02T02:09:01.382Z,75.94
2018-05-02T02:11:28.041Z,75.00
2018-05-02T02:13:54.785Z,75.00
2018-05-02T02:16:27.442Z,75.01
2018-05-02T02:18:54.105Z,74.92
2018-05-02T02:21:20.731Z,74.61
2018-05-02T02:23:47.661Z,75.16
2018-05-02T02:26:18.020Z,74.67
2018-05-02T02:28:44.682Z,76.02
2018-05-02T02:31:11.449Z,76.24
2018-05-02T02:33:38.132Z,76.25
2018-05-02T02:36:08.821Z,76.62
2018-05-02T02:38:35.462Z,76.02
2018-05-02T02:41:02.165Z,76.67
2018-05-02T02:43:28.784Z,76.25
2018-05-02T02:45:59.600Z,75.78
2018-05-02T02:48:26.296Z,76.29
2018-05-02T02:50:52.958Z,75.64
2018-05-02T02:53:19.629Z,75.04
2018-05-02T02:55:46.268Z,75.45
2018-05-02T02:58:13.000Z,75.24
2018-05-02T03:00:40.025Z,74.99
2018-05-02T03:03:06.772Z,75.01
2018-05-02T03:05:33.628Z,75.45
2018-05-02T03:08:00.335Z,74.61
2018-05-02T03:10:27.298Z,74.39
2018-05-02T03:12:53.871Z,74.66
2018-05-02T03:15:20.569Z,75.82
2018-05-02T03:17:51.947Z,75.03
2018-05-02T03:20:18.517Z,74.46
2018-05-02T03:22:45.117Z,74.65
2018-05-02T03:25:11.857Z,74.96
2018-05-02T03:27:41.997Z,74.97
2018-05-02T03:30:08.717Z,74.95
2018-05-02T03:32:35.453Z,74.91
2018-05-02T03:35:02.124Z,75.79
2018-05-02T03:37:32.525Z,75.33
2018-05-02T03:39:59.225Z,76.04
2018-05-02T03:42:25.985Z,76.13
2018-05-02T03:44:52.686Z,75.94
2018-05-02T03:47:23.492Z,75.16
2018-05-02T03:49:50.192Z,74.51
2018-05-02T03:52:16.918Z,74.05
2018-05-02T03:54:43.657Z,74.66
2018-05-02T03:57:13.951Z,74.06
2018-05-02T03:59:52.596Z,73.47
2018-05-02T04:02:31.134Z,73.42
2018-05-02T04:05:09.705Z,73.35
2018-05-02T04:07:40.023Z,73.25
2018-05-02T04:10:07.270Z,73.38
2018-05-02T04:12:34.381Z,73.08
2018-05-02T04:15:01.011Z,73.41
2018-05-02T04:17:30.907Z,72.14
2018-05-02T04:19:57.610Z,71.43
2018-05-02T04:22:24.289Z,71.36
2018-05-02T04:24:51.018Z,71.00
2018-05-02T04:27:24.785Z,71.65
2018-05-02T04:29:51.471Z,70.53
2018-05-02T04:32:18.165Z,70.33
2018-05-02T04:34:44.921Z,70.87
2018-05-02T04:37:14.986Z,69.82
2018-05-02T04:39:41.739Z,70.14
2018-05-02T04:42:08.418Z,72.07
2018-05-02T04:44:35.211Z,72.42
2018-05-02T04:47:05.573Z,71.57
2018-05-02T04:49:32.314Z,72.80
2018-05-02T04:52:03.781Z,72.50
2018-05-02T04:54:30.525Z,70.86
2018-05-02T04:57:01.735Z,70.33
2018-05-02T04:59:28.492Z,71.16
2018-05-02T05:01:55.417Z,70.86
2018-05-02T05:04:22.003Z,69.77
2018-05-02T05:06:49.750Z,69.54
2018-05-02T05:09:16.419Z,69.39
2018-05-02T05:11:43.166Z,68.85
2018-05-02T05:14:09.735Z,68.63
2018-05-02T05:16:40.167Z,70.48
2018-05-02T05:19:06.845Z,70.83
2018-05-02T05:21:33.538Z,69.88
2018-05-02T05:24:00.411Z,68.83
2018-05-02T05:26:28.257Z,67.38
2018-05-02T05:28:54.990Z,65.74
2018-05-02T05:31:21.669Z,62.24
2018-05-02T05:33:48.681Z,67.83
2018-05-02T05:36:18.637Z,68.09
2018-05-02T05:38:45.307Z,61.92
2018-05-02T05:41:12.606Z,64.93
2018-05-02T05:43:39.405Z,68.02
2018-05-02T05:46:09.198Z,67.20
2018-05-02T05:48:35.832Z,67.67
2018-05-02T05:51:02.437Z,70.81
2018-05-02T05:53:29.065Z,68.63
2018-05-02T05:55:56.944Z,69.80
2018-05-02T05:58:23.594Z,67.55
2018-05-02T06:00:50.324Z,67.85
2018-05-02T06:03:16.939Z,70.11
2018-05-02T06:05:47.177Z,70.53
2018-05-02T06:08:13.858Z,68.77
2018-05-02T06:10:40.539Z,66.86
2018-05-02T06:13:07.135Z,66.85
2018-05-02T06:15:37.904Z,66.90
2018-05-02T06:18:04.582Z,65.61
2018-05-02T06:20:31.296Z,67.52
2018-05-02T06:22:59.517Z,65.27
2018-05-02T06:25:31.253Z,64.98
2018-05-02T06:27:57.817Z,65.04
2018-05-02T06:30:24.437Z,63.68
2018-05-02T06:32:51.014Z,62.22
2018-05-02T06:35:22.746Z,61.37
2018-05-02T06:37:49.425Z,63.26
2018-05-02T06:40:15.987Z,65.60
2018-05-02T06:42:42.980Z,64.03
2018-05-02T06:45:11.154Z,64.39
2018-05-02T06:47:37.891Z,62.80
2018-05-02T06:50:04.590Z,62.33
2018-05-02T06:52:31.333Z,64.08
2018-05-02T06:54:58.029Z,62.49
2018-05-02T06:57:25.410Z,62.36
2018-05-02T06:59:52.021Z,62.34
2018-05-02T07:02:18.739Z,62.41
2018-05-02T07:04:45.521Z,60.42
2018-05-02T07:07:16.020Z,61.98
2018-05-02T07:09:42.607Z,61.75
2018-05-02T07:12:09.168Z,65.78
2018-05-02T07:14:35.769Z,64.39
2018-05-02T07:17:02.630Z,63.43
2018-05-02T07:19:29.338Z,63.93
2018-05-02T07:21:55.849Z,62.76
2018-05-02T07:24:22.823Z,60.35
2018-05-02T07:26:50.679Z,59.59
2018-05-02T07:29:17.408Z,59.33
2018-05-02T07:31:45.044Z,60.32
2018-05-02T07:34:11.629Z,59.53
2018-05-02T07:36:38.149Z,59.98
2018-05-02T07:39:04.783Z,59.41
2018-05-02T07:41:31.470Z,59.17
2018-05-02T07:43:58.190Z,59.82
2018-05-02T07:46:24.872Z,58.75
2018-05-02T07:48:51.569Z,57.18
2018-05-02T07:51:18.287Z,57.19
2018-05-02T07:53:44.988Z,58.42
2018-05-02T07:56:11.867Z,57.70
2018-05-02T07:58:38.619Z,55.77
2018-05-02T08:01:05.414Z,57.96
2018-05-02T08:03:32.160Z,56.25
2018-05-02T08:06:02.227Z,56.43
2018-05-02T08:08:28.744Z,56.54
2018-05-02T08:10:55.411Z,55.85
2018-05-02T08:13:22.069Z,55.26
2018-05-02T08:15:49.882Z,55.42
2018-05-02T08:18:16.593Z,55.57
2018-05-02T08:20:43.197Z,55.56
2018-05-02T08:23:09.897Z,56.30
2018-05-02T08:25:43.308Z,55.71
2018-05-02T08:28:09.885Z,54.65
2018-05-02T08:30:36.501Z,55.90
2018-05-02T08:33:03.173Z,53.87
2018-05-02T08:35:29.728Z,54.43
2018-05-02T08:37:56.285Z,55.97
2018-05-02T08:40:22.901Z,55.63
2018-05-02T08:42:49.532Z,54.31
2018-05-02T08:45:19.504Z,54.29
2018-05-02T08:47:46.356Z,54.14
2018-05-02T08:50:13.088Z,55.38
2018-05-02T08:52:39.697Z,55.25
2018-05-02T08:55:09.304Z,55.62
2018-05-02T08:57:35.991Z,55.25
2018-05-02T09:00:02.576Z,55.61
2018-05-02T09:02:29.283Z,54.41
2018-05-02T09:04:55.857Z,53.98
2018-05-02T09:07:22.793Z,53.14
2018-05-02T09:09:49.619Z,54.53
2018-05-02T09:12:16.195Z,54.98
2018-05-02T09:14:43.980Z,54.47
2018-05-02T09:17:10.702Z,53.86
2018-05-02T09:19:37.403Z,52.26
2018-05-02T09:22:04.012Z,51.01
2018-05-02T09:24:38.516Z,49.66
2018-05-02T09:27:05.289Z,49.02
2018-05-02T09:29:32.088Z,49.83
2018-05-02T09:31:58.978Z,52.20
2018-05-02T09:34:25.765Z,52.47
2018-05-02T09:36:52.473Z,49.16
2018-05-02T09:39:19.146Z,49.56
2018-05-02T09:41:45.721Z,50.14
2018-05-02T09:44:12.390Z,49.36
2018-05-02T09:46:42.224Z,49.49
2018-05-02T09:49:09.020Z,52.36
2018-05-02T09:51:36.245Z,49.29
2018-05-02T09:54:02.786Z,49.21
2018-05-02T09:56:35.645Z,49.75
2018-05-02T09:59:02.917Z,48.43
2018-05-02T10:01:29.653Z,51.13
2018-05-02T10:03:56.550Z,49.63
2018-05-02T10:06:23.369Z,48.32
2018-05-02T10:08:50.432Z,48.17
2018-05-02T10:11:17.726Z,50.77
2018-05-02T10:13:45.096Z,49.64
2018-05-02T10:16:18.633Z,53.14
2018-05-02T10:18:45.505Z,49.90
2018-05-02T10:21:12.185Z,48.38
2018-05-02T10:23:38.969Z,48.24
2018-05-02T10:26:09.008Z,51.23
2018-05-02T10:28:35.593Z,51.88
2018-05-02T10:31:02.245Z,50.36
2018-05-02T10:33:29.118Z,46.05
2018-05-02T10:35:59.824Z,48.16
2018-05-02T10:38:26.450Z,47.22
2018-05-02T10:40:53.062Z,46.52
2018-05-02T10:43:19.724Z,48.49
2018-05-02T10:45:51.787Z,47.65
2018-05-02T10:48:18.526Z,46.04
2018-05-02T10:50:45.435Z,47.41
2018-05-02T10:53:12.103Z,45.38
2018-05-02T10:55:42.545Z,49.12
2018-05-02T10:58:09.209Z,46.57
2018-05-02T11:00:35.806Z,47.89
2018-05-02T11:03:02.466Z,44.94
2018-05-02T11:05:33.479Z,48.37
2018-05-02T11:08:00.335Z,46.04
2018-05-02T11:10:27.049Z,45.37
2018-05-02T11:12:53.782Z,49.72
2018-05-02T11:15:23.848Z,47.33
2018-05-02T11:17:50.681Z,45.47
2018-05-02T11:20:17.398Z,46.15
2018-05-02T11:22:43.992Z,48.91
2018-05-02T11:25:14.914Z,45.80
2018-05-02T11:27:41.603Z,50.23
2018-05-02T11:30:08.213Z,46.60
2018-05-02T11:32:34.658Z,47.22
2018-05-02T11:35:01.687Z,49.30
2018-05-02T11:37:28.470Z,49.60
2018-05-02T11:39:55.302Z,49.91
2018-05-02T11:42:22.270Z,48.73
2018-05-02T11:44:57.157Z,50.51
2018-05-02T11:47:23.885Z,52.17
2018-05-02T11:49:50.591Z,52.58
2018-05-02T11:52:17.415Z,49.88
2018-05-02T11:54:45.058Z,47.58
2018-05-02T11:57:11.884Z,45.43
2018-05-02T11:59:38.500Z,48.76
2018-05-02T12:02:05.172Z,47.14
2018-05-02T12:04:45.618Z,46.52
2018-05-02T12:07:12.267Z,48.20
2018-05-02T12:09:39.113Z,47.18
2018-05-02T12:12:05.769Z,45.02
2018-05-02T12:14:36.413Z,46.42
2018-05-02T12:17:04.014Z,51.43
2018-05-02T12:19:30.776Z,49.30
2018-05-02T12:21:57.397Z,49.38
2018-05-02T12:24:27.736Z,46.56
2018-05-02T12:26:54.381Z,48.01
2018-05-02T12:29:20.989Z,47.65
2018-05-02T12:31:47.722Z,48.29
2018-05-02T12:34:15.398Z,47.67
2018-05-02T12:36:41.993Z,47.24
2018-05-02T12:39:08.672Z,47.21
2018-05-02T12:41:35.282Z,46.50
2018-05-02T12:44:02.034Z,47.11
2018-05-02T12:46:28.689Z,46.64
2018-05-02T12:48:55.510Z,50.03
2018-05-02T12:51:22.206Z,49.08
2018-05-02T12:53:48.904Z,46.60
2018-05-02T12:56:17.035Z,49.84
2018-05-02T12:58:43.649Z,49.81
2018-05-02T13:01:10.633Z,50.42
2018-05-02T13:03:37.863Z,49.73
2018-05-02T13:06:08.366Z,49.04
2018-05-02T13:08:34.877Z,46.84
2018-05-02T13:11:01.557Z,47.64
2018-05-02T13:13:28.197Z,45.47
2018-05-02T13:15:58.810Z,45.46
2018-05-02T13:18:25.453Z,49.27
2018-05-02T13:20:52.132Z,52.13
2018-05-02T13:23:19.314Z,48.81
2018-05-02T13:25:46.207Z,52.86
2018-05-02T13:28:13.414Z,51.03
2018-05-02T13:30:40.129Z,48.30
2018-05-02T13:33:08.280Z,49.97
2018-05-02T13:35:41.616Z,49.65
2018-05-02T13:38:08.293Z,49.21
2018-05-02T13:40:35.046Z,49.27
2018-05-02T13:43:01.771Z,49.15
2018-05-02T13:45:28.688Z,48.87
2018-05-02T13:47:55.235Z,54.30
2018-05-02T13:50:22.312Z,48.43
2018-05-02T13:52:49.274Z,50.04
2018-05-02T13:55:16.846Z,50.99
2018-05-02T13:57:43.640Z,48.12
2018-05-02T14:00:10.274Z,50.69
2018-05-02T14:02:36.938Z,49.44
2018-05-02T14:05:09.395Z,48.84
2018-05-02T14:07:36.025Z,51.81
2018-05-02T14:10:02.703Z,51.52
2018-05-02T14:12:29.266Z,50.49
2018-05-02T14:14:59.440Z,48.45
2018-05-02T14:17:26.405Z,49.21
2018-05-02T14:19:53.107Z,48.71
2018-05-02T14:22:19.694Z,50.37
2018-05-02T14:24:49.757Z,48.67
2018-05-02T14:27:16.485Z,49.45
2018-05-02T14:29:43.488Z,49.29
2018-05-02T14:32:10.175Z,47.79
2018-05-02T14:34:40.389Z,49.28
2018-05-02T14:37:06.958Z,50.48
2018-05-02T14:39:33.673Z,51.10
2018-05-02T14:42:00.362Z,50.58
2018-05-02T14:44:30.790Z,49.51
2018-05-02T14:46:57.492Z,50.44
2018-05-02T14:49:24.937Z,51.67
2018-05-02T14:51:51.878Z,50.04
2018-05-02T14:54:18.779Z,48.92
2018-05-02T14:56:45.342Z,50.05
2018-05-02T14:59:11.964Z,49.93
2018-05-02T15:01:38.596Z,49.54
2018-05-02T15:04:06.559Z,52.20
2018-05-02T15:06:33.049Z,52.10
2018-05-02T15:08:59.610Z,54.42
2018-05-02T15:11:26.361Z,52.36
2018-05-02T15:13:54.029Z,51.46
2018-05-02T15:16:20.680Z,51.33
2018-05-02T15:18:47.537Z,54.27
2018-05-02T15:21:14.490Z,55.54
2018-05-02T15:23:52.571Z,55.02
2018-05-02T15:26:19.183Z,53.29
2018-05-02T15:28:45.984Z,55.13
2018-05-02T15:31:12.643Z,48.93
2018-05-02T15:33:46.309Z,48.37
2018-05-02T15:36:13.014Z,48.92
2018-05-02T15:38:39.657Z,50.08
2018-05-02T15:41:06.305Z,48.08
2018-05-02T15:43:32.965Z,49.79
2018-05-02T15:45:59.733Z,50.23
2018-05-02T15:48:26.423Z,46.21
2018-05-02T15:50:53.114Z,49.59
2018-05-02T15:53:19.682Z,50.62
2018-05-02T15:55:49.314Z,51.92
2018-05-02T15:58:16.047Z,54.25
2018-05-02T16:00:42.542Z,54.33
2018-05-02T16:03:09.374Z,57.03
2018-05-02T16:05:39.867Z,57.59
2018-05-02T16:08:06.514Z,59.10
2018-05-02T16:10:33.332Z,58.73
2018-05-02T16:12:59.862Z,61.29
2018-05-02T16:15:30.089Z,60.41
2018-05-02T16:17:56.666Z,61.88
2018-05-02T16:20:23.365Z,60.90
2018-05-02T16:22:50.569Z,61.59
2018-05-02T16:25:20.427Z,62.80
2018-05-02T16:27:47.222Z,64.12
2018-05-02T16:30:13.769Z,64.52
2018-05-02T16:32:40.392Z,66.10
2018-05-02T16:35:08.077Z,66.17
2018-05-02T16:37:34.674Z,66.54
2018-05-02T16:40:01.231Z,67.40
2018-05-02T16:42:27.894Z,66.99
2018-05-02T16:44:54.818Z,69.12
2018-05-02T16:47:21.353Z,67.47
2018-05-02T16:49:48.035Z,68.07
2018-05-02T16:52:14.531Z,67.88
2018-05-02T16:54:51.427Z,67.26
2018-05-02T16:57:18.552Z,67.21
2018-05-02T16:59:45.198Z,67.26
2018-05-02T17:02:12.203Z,67.69
2018-05-02T17:04:44.334Z,67.14
2018-05-02T17:07:11.002Z,67.02
2018-05-02T17:09:37.601Z,68.27
2018-05-02T17:12:04.319Z,67.78
2018-05-02T17:14:32.274Z,68.46
2018-05-02T17:16:58.966Z,68.65
2018-05-02T17:19:25.535Z,68.29
2018-05-02T17:21:52.501Z,68.32
2018-05-02T17:24:25.013Z,67.66
2018-05-02T17:26:51.642Z,67.71
2018-05-02T17:29:18.427Z,68.63
2018-05-02T17:31:45.590Z,68.45
2018-05-02T17:34:15.498Z,67.61
2018-05-02T17:36:42.163Z,66.95
2018-05-02T17:39:08.751Z,67.55
2018-05-02T17:41:36.328Z,68.45
2018-05-02T17:44:06.972Z,68.21
2018-05-02T17:46:33.563Z,68.67
2018-05-02T17:49:00.009Z,69.32
2018-05-02T17:51:26.991Z,69.46
2018-05-02T17:54:00.195Z,68.98
2018-05-02T17:56:26.850Z,69.23
2018-05-02T17:58:53.522Z,68.75
2018-05-02T18:01:20.213Z,68.44
2018-05-02T18:03:51.415Z,67.71
2018-05-02T18:06:17.929Z,68.18
2018-05-02T18:08:44.937Z,69.66
2018-05-02T18:11:11.505Z,70.50
2018-05-02T18:13:41.606Z,70.14
2018-05-02T18:16:08.296Z,70.40
2018-05-02T18:18:35.029Z,70.34
2018-05-02T18:21:01.713Z,70.62
2018-05-02T18:23:31.841Z,70.70
2018-05-02T18:25:58.600Z,70.27
2018-05-02T18:28:25.227Z,69.65
2018-05-02T18:30:51.929Z,71.23
2018-05-02T18:33:25.968Z,70.48
2018-05-02T18:35:52.473Z,69.57
2018-05-02T18:38:19.190Z,70.36
2018-05-02T18:40:45.892Z,70.84
2018-05-02T18:43:18.698Z,68.97
2018-05-02T18:45:45.737Z,70.37
2018-05-02T18:48:12.398Z,70.18
2018-05-02T18:50:39.118Z,70.56
2018-05-02T18:53:06.484Z,70.31
2018-05-02T18:55:34.094Z,70.55
2018-05-02T18:58:00.832Z,70.31
2018-05-02T19:00:27.466Z,69.70
2018-05-02T19:02:54.132Z,69.27
2018-05-02T19:05:24.513Z,70.71
2018-05-02T19:07:51.156Z,70.27
2018-05-02T19:10:17.945Z,69.77
2018-05-02T19:12:44.650Z,71.18
2018-05-02T19:15:12.193Z,73.02
2018-05-02T19:20:36.939Z,73.80
2018-05-02T19:23:03.913Z,73.06
2018-05-02T19:25:36.598Z,72.95
2018-05-02T19:28:03.298Z,73.03
2018-05-02T19:30:29.857Z,73.79
2018-05-02T19:33:02.548Z,72.87
2018-05-02T19:35:29.289Z,73.46
2018-05-02T19:37:55.973Z,73.14
2018-05-02T19:40:28.598Z,73.24
2018-05-02T19:43:01.212Z,74.00
2018-05-02T19:45:27.922Z,73.98
2018-05-02T19:47:55.302Z,75.02
2018-05-02T19:50:21.913Z,74.64
2018-05-02T19:52:48.548Z,75.14
2018-05-02T19:55:18.575Z,74.88
2018-05-02T19:57:45.242Z,74.17
2018-05-02T20:00:17.952Z,75.16
2018-05-02T20:02:50.573Z,74.49
2018-05-02T20:05:17.306Z,75.69
2018-05-02T20:07:44.059Z,75.21
2018-05-02T20:10:16.730Z,74.52
2018-05-02T20:12:49.326Z,75.26
2018-05-02T20:15:16.026Z,75.11
2018-05-02T20:17:42.681Z,74.88
2018-05-02T20:20:09.402Z,74.87
2018-05-02T20:22:36.850Z,73.90
2018-05-02T20:25:07.318Z,74.02
2018-05-02T20:27:34.085Z,73.38
2018-05-02T20:30:00.729Z,73.84
2018-05-02T20:32:27.368Z,74.60
2018-05-02T20:34:57.468Z,75.53
2018-05-02T20:37:24.180Z,74.26
2018-05-02T20:39:50.858Z,74.26
2018-05-02T20:42:17.589Z,74.13
2018-05-02T20:44:44.392Z,75.87
2018-05-02T20:47:11.119Z,75.95
2018-05-02T20:49:37.701Z,75.95
2018-05-02T20:52:04.293Z,75.46
2018-05-02T20:54:32.020Z,76.16
2018-05-02T20:56:58.722Z,75.99
2018-05-02T20:59:25.281Z,75.39
2018-05-02T21:01:52.007Z,75.42
2018-05-02T21:04:18.700Z,76.07
2018-05-02T21:06:45.454Z,75.01
2018-05-02T21:09:12.223Z,76.30
2018-05-02T21:11:38.775Z,76.13
2018-05-02T21:14:07.446Z,75.46
2018-05-02T21:16:34.216Z,75.10
2018-05-02T21:19:00.952Z,75.46
2018-05-02T21:21:27.690Z,75.04
2018-05-02T21:23:57.277Z,75.29
2018-05-02T21:26:23.994Z,74.78
2018-05-02T21:28:51.460Z,76.75
2018-05-02T21:31:18.158Z,76.21
2018-05-02T21:33:49.765Z,75.64
2018-05-02T21:36:16.481Z,76.32
2018-05-02T21:38:43.179Z,75.40
2018-05-02T21:41:09.797Z,75.69
2018-05-02T21:43:40.389Z,75.21
2018-05-02T21:46:07.185Z,76.34
2018-05-02T21:48:34.020Z,76.72
2018-05-02T21:51:01.083Z,76.48
2018-05-02T21:53:31.534Z,76.48
2018-05-02T21:55:58.068Z,75.46
2018-05-02T21:58:24.705Z,75.45
2018-05-02T22:00:51.352Z,75.26
2018-05-02T22:03:19.269Z,76.34
2018-05-02T22:05:45.862Z,75.26
2018-05-02T22:08:12.503Z,75.53
2018-05-02T22:10:39.188Z,75.09
2018-05-02T22:13:05.960Z,76.18
2018-05-02T22:15:33.326Z,75.79
2018-05-02T22:18:00.231Z,75.75
2018-05-02T22:20:26.957Z,75.67
2018-05-02T22:22:56.628Z,75.73
2018-05-02T22:25:23.213Z,75.68
2018-05-02T22:27:49.937Z,75.20
2018-05-02T22:30:16.649Z,74.68
2018-05-02T22:32:44.326Z,75.16
2018-05-02T22:35:11.033Z,75.65
2018-05-02T22:37:37.730Z,75.40
2018-05-02T22:40:04.170Z,75.20
2018-05-02T22:42:30.835Z,75.10
2018-05-02T22:44:57.326Z,74.16
2018-05-02T22:47:23.814Z,75.16
2018-05-02T22:49:50.433Z,75.58
2018-05-02T22:52:17.157Z,74.79
2018-05-02T22:54:44.878Z,75.49
2018-05-02T22:57:11.509Z,74.74
2018-05-02T22:59:38.306Z,74.37
2018-05-02T23:02:04.937Z,74.37
2018-05-02T23:04:37.024Z,73.26
2018-05-02T23:07:03.709Z,73.46
2018-05-02T23:09:30.261Z,72.39
2018-05-02T23:11:57.324Z,73.56
2018-05-02T23:14:27.878Z,74.35
2018-05-02T23:16:54.518Z,74.89
2018-05-02T23:19:21.554Z,74.15
2018-05-02T23:21:48.023Z,74.88
2018-05-02T23:24:15.654Z,75.35
2018-05-02T23:26:42.310Z,74.73
2018-05-02T23:29:09.009Z,74.38
2018-05-02T23:31:36.021Z,73.74
2018-05-02T23:34:05.889Z,74.83
2018-05-02T23:36:32.684Z,75.21
2018-05-02T23:38:59.209Z,73.55
2018-05-02T23:41:25.974Z,73.87
2018-05-02T23:43:56.381Z,73.70
2018-05-02T23:46:22.972Z,73.19
2018-05-02T23:48:49.709Z,73.97
2018-05-02T23:51:16.189Z,75.23
2018-05-02T23:53:46.174Z,74.55
2018-05-02T23:56:12.937Z,74.39
2018-05-02T23:58:39.627Z,74.27
